createdAt,value
2022-12-23T05:58:01.289Z,100419.09
2022-12-23T06:00:28.128Z,100435.03
2022-12-23T06:02:54.808Z,100413.75
2022-12-23T06:05:21.944Z,100417.19
2022-12-23T06:07:48.636Z,100403.91
2022-12-23T06:10:15.048Z,100393.22
2022-12-23T06:12:41.477Z,100398.56
2022-12-23T06:15:08.478Z,100398.56
2022-12-23T06:17:35.008Z,100394.25
2022-12-23T06:20:01.535Z,100407.44
2022-12-23T06:22:28.085Z,100395.81
2022-12-23T06:24:54.515Z,100398.66
2022-12-23T06:27:20.962Z,100412.59
2022-12-23T06:29:48.205Z,100398.38
2022-12-23T06:32:14.926Z,100399.16
2022-12-23T06:34:41.574Z,100384.16
2022-12-23T06:37:08.327Z,100388.38
2022-12-23T06:39:35.269Z,100391.81
2022-12-23T06:42:01.731Z,100387.34
2022-12-23T06:44:28.101Z,100387.22
2022-12-23T06:46:54.543Z,100400.41
2022-12-23T06:49:20.957Z,100384.75
2022-12-23T06:51:47.327Z,100402.91
2022-12-23T06:54:13.900Z,100409.91
2022-12-23T06:56:40.519Z,100416.28
2022-12-23T06:59:06.967Z,100431.38
2022-12-23T07:01:33.603Z,100444.53
2022-12-23T07:04:00.113Z,100441.97
2022-12-23T07:06:26.557Z,100443.50
2022-12-23T07:08:52.932Z,100444.28
2022-12-23T07:11:19.362Z,100443.44
2022-12-23T07:13:46.699Z,100450.31
2022-12-23T07:16:13.148Z,100474.38
2022-12-23T07:18:39.650Z,100451.47
2022-12-23T07:21:10.608Z,100456.34
2022-12-23T07:23:44.417Z,100469.81
2022-12-23T07:26:10.865Z,100479.56
2022-12-23T07:28:37.478Z,100463.50
2022-12-23T07:31:06.306Z,100467.81
2022-12-23T07:33:32.685Z,100462.38
2022-12-23T07:35:59.647Z,100456.06
2022-12-23T07:38:26.382Z,100447.28
2022-12-23T07:40:52.827Z,100454.34
2022-12-23T07:43:19.192Z,100449.00
2022-12-23T07:45:45.676Z,100442.97
2022-12-23T07:48:12.079Z,100450.53
2022-12-23T07:50:38.491Z,100432.28
2022-12-23T07:53:04.902Z,100419.75
2022-12-23T07:55:31.387Z,100433.44
2022-12-23T07:57:57.844Z,100422.75
2022-12-23T08:00:24.263Z,100419.28
2022-12-23T08:02:50.791Z,100437.56
2022-12-23T08:05:17.533Z,100448.28
2022-12-23T08:07:45.259Z,100440.06
2022-12-23T08:10:12.554Z,100424.09
2022-12-23T08:12:39.014Z,100409.78
2022-12-23T08:15:06.245Z,100418.56
2022-12-23T08:17:32.763Z,100418.38
2022-12-23T08:19:59.146Z,100429.75
2022-12-23T08:22:25.534Z,100424.38
2022-12-23T08:24:52.601Z,100412.16
2022-12-23T08:27:19.447Z,100417.34
2022-12-23T08:29:45.924Z,100431.47
2022-12-23T08:32:12.323Z,100440.25
2022-12-23T08:34:38.843Z,100442.75
2022-12-23T08:37:05.267Z,100431.38
2022-12-23T08:39:31.962Z,100437.41
2022-12-23T08:41:58.431Z,100421.25
2022-12-23T08:44:27.769Z,100424.22
2022-12-23T08:46:54.956Z,100434.72
2022-12-23T08:49:21.947Z,100442.66
2022-12-23T08:51:49.127Z,100439.78
2022-12-23T08:54:15.941Z,100420.38
2022-12-23T08:56:42.464Z,100419.16
2022-12-23T08:59:19.156Z,100414.66
2022-12-23T09:01:47.158Z,100414.00
2022-12-23T09:04:13.714Z,100403.97
2022-12-23T09:06:42.003Z,100407.41
2022-12-23T09:09:10.983Z,100396.72
2022-12-23T09:11:37.809Z,100401.28
2022-12-23T09:14:04.884Z,100401.19
2022-12-23T09:16:32.042Z,100397.63
2022-12-23T09:18:58.588Z,100381.78
2022-12-23T09:21:25.581Z,100387.91
2022-12-23T09:23:52.318Z,100357.44
2022-12-23T09:26:22.601Z,100349.47
2022-12-23T09:28:49.130Z,100354.47
2022-12-23T09:31:16.321Z,100350.75
2022-12-23T09:33:42.996Z,100347.56
2022-12-23T09:36:09.450Z,100351.97
2022-12-23T09:38:36.276Z,100350.91
2022-12-23T09:41:10.105Z,100346.41
2022-12-23T09:43:52.977Z,100351.78
2022-12-23T09:46:22.861Z,100338.59
2022-12-23T09:49:05.852Z,100340.41
2022-12-23T09:51:33.131Z,100332.19
2022-12-23T09:54:02.449Z,100340.88
2022-12-23T09:56:41.833Z,100331.88
2022-12-23T09:59:32.869Z,100335.53
2022-12-23T10:02:18.270Z,100331.03
2022-12-23T10:04:57.391Z,100327.41
2022-12-23T10:07:31.724Z,100320.16
2022-12-23T10:10:03.154Z,100308.75
2022-12-23T10:12:40.139Z,100324.28
2022-12-23T10:15:19.148Z,100326.16
2022-12-23T10:17:47.178Z,100327.72
2022-12-23T10:20:19.454Z,100329.22
2022-12-23T10:22:47.145Z,100317.66
2022-12-23T10:25:36.600Z,100318.59
2022-12-23T10:28:03.438Z,100315.94
2022-12-23T10:33:32.417Z,100293.47
2022-12-23T10:36:15.548Z,100287.06
2022-12-23T10:38:58.993Z,100286.00
2022-12-23T10:41:38.132Z,100266.50
2022-12-23T10:44:40.267Z,100264.59
2022-12-23T10:47:12.595Z,100263.72
2022-12-23T10:49:51.350Z,100259.25
2022-12-23T10:52:21.264Z,100244.88
2022-12-23T10:54:49.253Z,100251.94
2022-12-23T10:57:18.595Z,100237.63
2022-12-23T10:59:45.319Z,100232.16
2022-12-23T11:02:11.798Z,100226.69
2022-12-23T11:04:45.255Z,100226.47
2022-12-23T11:10:13.121Z,100205.94
2022-12-23T11:12:42.833Z,100207.53
2022-12-23T11:15:40.990Z,100195.88
2022-12-23T11:18:18.206Z,100184.28
2022-12-23T11:20:46.716Z,100170.81
2022-12-23T11:23:25.456Z,100167.19
2022-12-23T11:26:06.998Z,100155.53
2022-12-23T11:28:40.753Z,100142.34
2022-12-23T11:31:11.572Z,100133.97
2022-12-23T11:33:56.005Z,100140.19
2022-12-23T11:36:25.927Z,100127.97
2022-12-23T11:38:53.944Z,100123.28
2022-12-23T11:41:23.935Z,100115.38
2022-12-23T11:44:03.728Z,100117.06
2022-12-23T11:46:32.626Z,100115.38
2022-12-23T11:49:31.445Z,100103.13
2022-12-23T11:52:01.748Z,100103.75
2022-12-23T11:54:29.212Z,100097.56
2022-12-23T11:56:56.420Z,100069.94
2022-12-23T11:59:43.367Z,100065.44
2022-12-23T12:02:15.134Z,100063.91
2022-12-23T12:04:42.590Z,100046.38
2022-12-23T12:07:13.417Z,100053.66
2022-12-23T12:09:41.959Z,100050.44
2022-12-23T12:12:16.874Z,100046.34
2022-12-23T12:14:49.618Z,100032.66
2022-12-23T12:17:30.979Z,100023.56
2022-12-23T12:20:10.800Z,100014.53
2022-12-23T12:22:40.339Z,100000.19
2022-12-23T12:25:17.829Z,99980.34
2022-12-23T12:27:53.138Z,99958.81
2022-12-23T12:30:21.238Z,99943.72
2022-12-23T12:33:00.998Z,99949.81
2022-12-23T12:35:33.282Z,99958.94
2022-12-23T12:38:06.986Z,99976.06
2022-12-23T12:40:43.416Z,99989.69
2022-12-23T12:43:28.361Z,99964.22
2022-12-23T12:46:26.867Z,99927.25
2022-12-23T12:48:56.297Z,99940.41
2022-12-23T12:51:34.780Z,99920.06
2022-12-23T12:54:11.386Z,99937.75
2022-12-23T12:56:46.320Z,99918.50
2022-12-23T12:59:22.347Z,99919.22
2022-12-23T13:02:29.423Z,99889.97
2022-12-23T13:05:33.644Z,99884.84
2022-12-23T13:08:15.312Z,99879.38
2022-12-23T13:10:51.482Z,99882.69
2022-12-23T13:13:24.148Z,99884.31
2022-12-23T13:16:05.262Z,99866.41
2022-12-23T13:18:31.662Z,99860.09
2022-12-23T13:21:19.927Z,99842.41
2022-12-23T13:24:06.155Z,99844.34
2022-12-23T13:26:39.190Z,99838.25
2022-12-23T13:29:33.656Z,99842.31
2022-12-23T13:32:40.343Z,99827.44
2022-12-23T13:35:18.914Z,99821.25
2022-12-23T13:37:45.214Z,99822.94
2022-12-23T13:40:14.550Z,99820.13
2022-12-23T13:42:48.102Z,99828.28
2022-12-23T13:45:17.987Z,99828.38
2022-12-23T13:48:26.495Z,99833.97
2022-12-23T13:51:15.179Z,99824.22
2022-12-23T13:54:12.791Z,99812.03
2022-12-23T13:56:52.768Z,99785.94
2022-12-23T13:59:19.221Z,99802.19
2022-12-23T14:01:52.499Z,99776.94
2022-12-23T14:04:58.997Z,99794.91
2022-12-23T14:07:28.251Z,99785.28
2022-12-23T14:09:57.874Z,99777.25
2022-12-23T14:12:31.508Z,99787.72
2022-12-23T14:15:25.669Z,99766.88
2022-12-23T14:18:04.331Z,99775.63
2022-12-23T14:20:51.549Z,99775.00
2022-12-23T14:23:46.008Z,99769.66
2022-12-23T14:26:31.121Z,99768.69
2022-12-23T14:29:26.037Z,99782.19
2022-12-23T14:31:58.278Z,99779.38
2022-12-23T14:34:33.665Z,99766.00
2022-12-23T14:37:21.791Z,99780.00
2022-12-23T14:39:49.066Z,99778.00
2022-12-23T14:42:33.111Z,99774.13
2022-12-23T14:45:28.128Z,99782.88
2022-12-23T14:47:54.673Z,99773.13
2022-12-23T14:50:33.522Z,99776.56
2022-12-23T14:53:02.298Z,99769.59
2022-12-23T14:55:31.226Z,99770.22
2022-12-23T14:58:13.145Z,99766.09
2022-12-23T15:00:47.264Z,99758.78
2022-12-23T15:03:14.542Z,99770.22
2022-12-23T15:05:42.280Z,99780.94
2022-12-23T15:08:42.924Z,99779.25
2022-12-23T15:11:18.396Z,99779.47
2022-12-23T15:13:45.061Z,99786.53
2022-12-23T15:16:17.705Z,99783.63
2022-12-23T15:18:59.677Z,99800.53
2022-12-23T15:21:29.287Z,99792.41
2022-12-23T15:23:55.974Z,99782.66
2022-12-23T15:26:30.376Z,99790.69
2022-12-23T15:28:58.860Z,99794.47
2022-12-23T15:31:28.490Z,99808.47
2022-12-23T15:34:05.230Z,99794.19
2022-12-23T15:36:37.603Z,99803.22
2022-12-23T15:39:15.515Z,99801.53
2022-12-23T15:41:44.204Z,99806.03
2022-12-23T15:44:15.547Z,99814.69
2022-12-23T15:46:42.381Z,99823.03
2022-12-23T15:49:11.563Z,99830.00
2022-12-23T15:54:34.623Z,99833.03
2022-12-23T15:57:03.301Z,99850.22
2022-12-23T15:59:36.381Z,99859.09
2022-12-23T16:05:38.152Z,99870.91
2022-12-23T16:08:13.932Z,99878.81
2022-12-23T16:10:41.582Z,99879.69
2022-12-23T16:13:19.240Z,99883.97
2022-12-23T16:15:46.429Z,99882.13
2022-12-23T16:18:29.878Z,99897.25
2022-12-23T16:21:00.760Z,99883.97
2022-12-23T16:23:35.985Z,99902.63
2022-12-23T16:26:03.873Z,99913.41
2022-12-23T16:28:38.941Z,99922.94
2022-12-23T16:31:07.277Z,99920.25
2022-12-23T16:33:38.643Z,99918.44
2022-12-23T16:36:27.575Z,99932.94
2022-12-23T16:39:02.265Z,99931.31
2022-12-23T16:41:28.677Z,99940.31
2022-12-23T16:43:55.022Z,99955.06
2022-12-23T16:46:23.342Z,99940.97
2022-12-23T16:48:52.970Z,99962.16
2022-12-23T16:51:22.836Z,99965.78
2022-12-23T16:53:50.740Z,99963.88
2022-12-23T16:56:19.698Z,99974.81
2022-12-23T16:58:46.486Z,99985.31
2022-12-23T17:01:21.859Z,99988.06
2022-12-23T17:03:49.033Z,99992.47
2022-12-23T17:06:17.377Z,99983.59
2022-12-23T17:08:44.171Z,99997.72
2022-12-23T17:11:21.414Z,100006.50
2022-12-23T17:13:47.842Z,100004.91
2022-12-23T17:16:19.392Z,99997.72
2022-12-23T17:18:50.526Z,100012.09
2022-12-23T17:21:21.731Z,100014.75
2022-12-23T17:23:48.970Z,100000.81
2022-12-23T17:26:15.509Z,100009.50
2022-12-23T17:28:42.006Z,100005.25
2022-12-23T17:31:13.994Z,100021.09
2022-12-23T17:33:42.086Z,100016.81
2022-12-23T17:36:10.976Z,100034.47
2022-12-23T17:38:37.597Z,100023.00
2022-12-23T17:41:04.442Z,100035.44
2022-12-23T17:43:30.831Z,100024.41
2022-12-23T17:45:57.296Z,100041.00
2022-12-23T17:48:28.139Z,100039.09
2022-12-23T17:50:58.241Z,100035.63
2022-12-23T17:53:24.634Z,100024.63
2022-12-23T17:55:51.068Z,100041.34
2022-12-23T17:58:17.486Z,100047.31
2022-12-23T18:00:43.953Z,100045.63
2022-12-23T18:03:22.491Z,100056.44
2022-12-23T18:05:49.426Z,100050.22
2022-12-23T18:08:16.857Z,100060.94
2022-12-23T18:10:44.306Z,100071.66
2022-12-23T18:13:17.352Z,100061.78
2022-12-23T18:15:44.478Z,100073.59
2022-12-23T18:18:20.471Z,100075.50
2022-12-23T18:20:56.663Z,100075.50
2022-12-23T18:23:31.307Z,100069.38
2022-12-23T18:25:58.402Z,100079.16
2022-12-23T18:28:25.833Z,100086.22
2022-12-23T18:30:55.521Z,100095.31
2022-12-23T18:33:22.089Z,100090.09
2022-12-23T18:35:49.666Z,100099.81
2022-12-23T18:38:17.323Z,100113.22
2022-12-23T18:40:44.344Z,100108.81
2022-12-23T18:43:22.645Z,100119.53
2022-12-23T18:45:53.224Z,100111.91
2022-12-23T18:48:21.208Z,100115.13
2022-12-23T18:50:47.763Z,100103.13
2022-12-23T18:53:25.205Z,100118.78
2022-12-23T18:55:53.362Z,100117.06
2022-12-23T18:58:20.588Z,100123.47
2022-12-23T19:00:48.404Z,100118.03
2022-12-23T19:03:22.964Z,100115.38
2022-12-23T19:05:50.890Z,100113.31
2022-12-23T19:08:25.476Z,100123.47
2022-12-23T19:10:53.496Z,100115.13
2022-12-23T19:13:20.063Z,100112.00
2022-12-23T19:15:46.714Z,100124.44
2022-12-23T19:18:15.727Z,100122.63
2022-12-23T19:20:43.469Z,100120.91
2022-12-23T19:23:10.981Z,100131.63
2022-12-23T19:25:41.312Z,100140.59
2022-12-23T19:28:08.069Z,100131.72
2022-12-23T19:30:34.620Z,100142.34
2022-12-23T19:33:01.077Z,100147.69
2022-12-23T19:35:27.671Z,100155.53
2022-12-23T19:37:54.102Z,100156.47
2022-12-23T19:40:20.604Z,100158.41
2022-12-23T19:42:46.999Z,100167.94
2022-12-23T19:45:13.460Z,100170.81
2022-12-23T19:47:39.926Z,100177.88
2022-12-23T19:50:07.625Z,100178.66
2022-12-23T19:52:35.065Z,100185.84
2022-12-23T19:55:01.586Z,100187.09
2022-12-23T19:57:28.390Z,100192.25
2022-12-23T19:59:54.863Z,100202.09
2022-12-23T20:02:23.295Z,100203.16
2022-12-23T20:04:49.946Z,100199.50
2022-12-23T20:07:16.398Z,100210.22
2022-12-23T20:09:42.816Z,100208.31
2022-12-23T20:12:09.165Z,100200.59
2022-12-23T20:14:35.874Z,100205.06
2022-12-23T20:17:02.577Z,100205.94
2022-12-23T20:19:29.086Z,100220.94
2022-12-23T20:21:55.520Z,100220.19
2022-12-23T20:24:21.943Z,100223.06
2022-12-23T20:26:48.296Z,100223.81
2022-12-23T20:29:14.873Z,100234.63
2022-12-23T20:31:41.766Z,100230.13
2022-12-23T20:34:13.901Z,100238.16
2022-12-23T20:36:40.399Z,100239.34
2022-12-23T20:39:06.957Z,100257.09
2022-12-23T20:41:33.812Z,100259.97
2022-12-23T20:44:33.265Z,100266.97
2022-12-23T20:46:46.932Z,100268.00
2022-12-23T20:49:13.373Z,100269.19
2022-12-23T20:51:39.723Z,100287.91
2022-12-23T20:54:06.099Z,100299.47
2022-12-23T20:56:32.507Z,100296.72
2022-12-23T20:59:00.057Z,100303.97
2022-12-23T21:01:35.086Z,100314.50
2022-12-23T21:04:04.966Z,100315.75
2022-12-23T21:06:32.665Z,100313.91
2022-12-23T21:09:00.064Z,100322.13
2022-12-23T21:11:36.655Z,100327.31
2022-12-23T21:14:06.816Z,100325.59
2022-12-23T21:16:35.397Z,100327.31
2022-12-23T21:19:01.945Z,100318.91
2022-12-23T21:21:31.107Z,100339.84
2022-12-23T21:24:02.141Z,100324.47
2022-12-23T21:26:30.701Z,100337.34
2022-12-23T21:29:01.896Z,100343.56
2022-12-23T21:31:30.754Z,100352.75
2022-12-23T21:33:58.241Z,100363.56
2022-12-23T21:36:27.695Z,100350.94
2022-12-23T21:38:54.635Z,100362.78
2022-12-23T21:41:29.681Z,100360.03
2022-12-23T21:43:57.645Z,100367.09
2022-12-23T21:46:24.775Z,100372.44
2022-12-23T21:48:51.598Z,100376.28
2022-12-23T21:51:23.956Z,100380.47
2022-12-23T21:53:53.890Z,100377.13
2022-12-23T21:56:22.226Z,100394.91
2022-12-23T21:58:48.640Z,100387.00
2022-12-23T22:01:20.333Z,100384.38
2022-12-23T22:03:49.009Z,100390.69
2022-12-23T22:06:17.789Z,100399.41
2022-12-23T22:08:44.351Z,100390.75
2022-12-23T22:11:20.701Z,100403.03
2022-12-23T22:13:47.852Z,100407.03
2022-12-23T22:16:21.473Z,100420.13
2022-12-23T22:18:48.724Z,100423.09
2022-12-23T22:21:18.821Z,100426.34
2022-12-23T22:23:48.652Z,100436.19
2022-12-23T22:26:24.200Z,100448.69
2022-12-23T22:28:52.562Z,100440.66
2022-12-23T22:31:36.171Z,100433.78
2022-12-23T22:34:02.917Z,100451.56
2022-12-23T22:36:29.620Z,100455.22
2022-12-23T22:38:58.045Z,100454.25
2022-12-23T22:41:27.744Z,100445.53
2022-12-23T22:43:54.610Z,100445.06
2022-12-23T22:46:21.245Z,100457.09
2022-12-23T22:48:47.798Z,100441.41
2022-12-23T22:51:23.614Z,100464.16
2022-12-23T22:53:50.381Z,100462.63
2022-12-23T22:56:19.363Z,100470.56
2022-12-23T22:58:45.965Z,100465.22
2022-12-23T23:01:26.161Z,100474.13
2022-12-23T23:03:57.788Z,100472.38
2022-12-23T23:06:29.828Z,100467.13
2022-12-23T23:08:57.879Z,100485.09
2022-12-23T23:11:26.459Z,100482.34
2022-12-23T23:13:53.733Z,100481.47
2022-12-23T23:16:20.275Z,100485.94
2022-12-23T23:18:46.819Z,100490.44
2022-12-23T23:21:14.589Z,100496.75
2022-12-23T23:23:41.183Z,100492.38
2022-12-23T23:26:10.069Z,100514.69
2022-12-23T23:28:37.994Z,100508.69
2022-12-23T23:31:39.849Z,100511.34
2022-12-23T23:33:50.831Z,100515.28
2022-12-23T23:36:17.403Z,100526.06
2022-12-23T23:38:43.857Z,100522.41
2022-12-23T23:41:10.242Z,100525.97
2022-12-23T23:43:36.612Z,100515.53
2022-12-23T23:46:03.136Z,100530.03
2022-12-23T23:48:29.519Z,100545.91
2022-12-23T23:51:03.953Z,100536.94
2022-12-23T23:53:30.379Z,100529.53
2022-12-23T23:56:06.022Z,100540.75
2022-12-23T23:58:33.221Z,100551.72
